Terminal Aerodrome Forecast
Issued by NWS

Home | Current Version | Previous Version | Text Only | Print | Product List | Glossary On
Versions: 1 2 3 4 5 6 7 8 9 10 11 12 13 14 15 16 17 18
000
FTUS45 KBOU 200735 AAA
TAFBJC
TAF AMD
KBJC 200735Z 2008/2106 33007KT P6SM BKN180
     FM201000 VRB04KT P6SM VCSH SCT040 BKN070 OVC120
      TEMPO 2012/2016 5SM -SHSN BKN025 OVC050
     FM201700 VRB05KT P6SM VCSH SCT040 OVC070
     FM202100 25008KT P6SM FEW060 SCT090 BKN120
     FM210200 19009KT P6SM FEW120 SCT200=

USA.gov is the U.S. government's official web portal to all federal, state and local government web resources and services.